Time;durP1;ratioP1;P1;durP2;ratioP2;P2;SDS_P1;SDS_P2;PMS_P1;PMS_P2;Temp;Humidity;BMP_temperature;BMP_pressure;BME280_temperature;BME280_humidity;BME280_pressure;Samples;Min_cycle;Max_cycle;Signal;HPM_P1;HPM_P2
2022/05/26 00:00:42;;;;;;;4.70;1.90;;;;;;;17.74;41.22;99057.55;1706212;84;21830;-80
2022/05/26 00:03:08;;;;;;;5.05;1.95;;;;;;;17.71;41.25;99056.43;1706320;84;21100;-80
2022/05/26 00:05:37;;;;;;;6.25;2.15;;;;;;;17.69;41.38;99047.72;1706398;84;21127;-80
2022/05/26 00:08:05;;;;;;;3.17;2.17;;;;;;;17.67;41.60;99042.12;1706638;84;21027;-80
2022/05/26 00:10:34;;;;;;;4.83;2.27;;;;;;;17.64;41.51;99034.73;1706371;84;20987;-80
2022/05/26 00:13:00;;;;;;;4.30;1.92;;;;;;;17.64;41.81;99033.89;1706406;84;21193;-79
2022/05/26 00:15:27;;;;;;;3.90;2.30;;;;;;;17.62;41.96;99027.35;1706488;84;21086;-79
2022/05/26 00:17:53;;;;;;;4.08;2.17;;;;;;;17.62;42.11;99025.18;1706659;84;21137;-80
2022/05/26 00:20:20;;;;;;;6.00;1.98;;;;;;;17.61;42.37;99028.30;1706448;84;21050;-79
2022/05/26 00:22:46;;;;;;;6.50;2.00;;;;;;;17.60;42.59;99026.62;1706502;84;21118;-80
2022/05/26 00:25:13;;;;;;;8.33;2.27;;;;;;;17.61;42.97;99030.12;1706175;84;21167;-79
2022/05/26 00:27:39;;;;;;;5.22;2.17;;;;;;;17.60;42.93;99025.75;1706104;84;20972;-80
2022/05/26 00:30:10;;;;;;;6.10;2.83;;;;;;;17.59;43.12;99024.06;1706209;84;21046;-79
2022/05/26 00:32:37;;;;;;;5.80;2.20;;;;;;;17.60;43.36;99024.41;1743634;82;21082;-80
2022/05/26 00:35:05;;;;;;;2.92;2.10;;;;;;;17.59;43.51;99018.74;1747552;82;22043;-80
2022/05/26 00:37:32;;;;;;;3.58;1.90;;;;;;;17.57;43.53;99020.67;1747329;82;21819;-79
2022/05/26 00:40:00;;;;;;;2.10;1.60;;;;;;;17.57;43.71;99023.33;1747721;82;21553;-79
2022/05/26 00:42:26;;;;;;;6.40;1.98;;;;;;;17.55;44.04;99019.91;1747491;82;21097;-79
2022/05/26 00:44:54;;;;;;;7.47;2.33;;;;;;;17.54;44.19;99014.23;1747694;82;21137;-80
2022/05/26 00:47:27;;;;;;;5.25;1.85;;;;;;;17.52;44.52;99009.52;1747546;81;21070;-79
2022/05/26 00:50:07;;;;;;;3.70;1.92;;;;;;;17.53;44.77;99016.52;1747704;82;21116;-80
2022/05/26 00:52:42;;;;;;;3.70;1.75;;;;;;;17.50;44.99;99002.97;1747017;82;21046;-79
2022/05/26 00:55:16;;;;;;;6.97;2.08;;;;;;;17.50;44.94;98998.11;1747511;82;21722;-79
2022/05/26 00:57:47;;;;;;;4.67;1.85;;;;;;;17.49;45.42;98991.11;1745909;82;21097;-78
2022/05/26 01:00:18;;;;;;;9.28;1.87;;;;;;;17.47;45.35;98991.22;1747493;82;21525;-79
2022/05/26 01:02:55;;;;;;;6.12;1.62;;;;;;;17.45;45.93;98988.66;1745936;82;21106;-79
2022/05/26 01:05:27;;;;;;;4.00;2.12;;;;;;;17.43;45.80;98986.60;1741239;82;21063;-80
2022/05/26 01:07:56;;;;;;;5.78;1.90;;;;;;;17.42;45.82;98985.38;1741752;82;21515;-81
2022/05/26 01:10:24;;;;;;;3.30;1.80;;;;;;;17.41;46.38;98975.69;1741786;82;21362;-79
2022/05/26 01:12:51;;;;;;;9.78;1.98;;;;;;;17.40;46.32;98976.63;1741499;82;21106;-81
2022/05/26 01:15:20;;;;;;;5.28;1.92;;;;;;;17.37;46.44;98969.73;1741822;82;21547;-80
2022/05/26 01:18:13;;;;;;;2.27;1.55;;;;;;;17.37;46.67;98974.22;1741730;82;21039;-80
2022/05/26 01:21:00;;;;;;;3.33;1.60;;;;;;;17.37;46.46;98972.41;1741407;82;21004;-79
2022/05/26 01:23:48;;;;;;;5.22;1.90;;;;;;;17.37;46.45;98975.06;1741671;82;21049;-80
2022/05/26 01:26:38;;;;;;;6.55;1.77;;;;;;;17.37;46.50;98969.73;1740617;82;20988;-80
2022/05/26 01:30:02;;;;;;;10.35;1.65;;;;;;;17.37;46.45;98962.25;1741776;82;21938;-80
2022/05/26 01:32:43;;;;;;;11.65;1.80;;;;;;;17.37;46.51;98959.11;1741742;82;20965;-79
2022/05/26 01:35:40;;;;;;;6.00;1.70;;;;;;;17.34;46.37;98969.11;1741636;82;21135;-80
2022/05/26 01:38:31;;;;;;;4.37;1.75;;;;;;;17.34;46.37;98964.64;1741783;82;21111;-80
2022/05/26 01:41:15;;;;;;;3.50;1.70;;;;;;;17.32;46.32;98971.87;1741058;82;21063;-80
2022/05/26 01:43:56;;;;;;;6.50;1.70;;;;;;;17.30;46.25;98963.17;1741197;82;21852;-80
2022/05/26 01:46:37;;;;;;;7.40;1.70;;;;;;;17.30;46.17;98962.30;1744123;81;21047;-80
2022/05/26 01:49:28;;;;;;;11.25;1.70;;;;;;;17.28;46.14;98957.09;1747606;82;21048;-80
2022/05/26 01:52:09;;;;;;;1.75;1.40;;;;;;;17.27;46.15;98958.91;1747631;82;21056;-80
2022/05/26 01:54:57;;;;;;;11.05;1.82;;;;;;;17.26;46.13;98961.67;1747914;82;21058;-81
2022/05/26 01:57:32;;;;;;;3.12;1.50;;;;;;;17.23;45.99;98944.60;1729339;82;21278;-79
2022/05/26 02:00:06;;;;;;;10.82;1.98;;;;;;;17.19;46.12;98945.30;1745781;82;21023;-80
2022/05/26 02:02:58;;;;;;;10.45;1.92;;;;;;;17.18;46.21;98940.09;1747862;82;21573;-80
2022/05/26 02:05:28;;;;;;;9.23;1.72;;;;;;;17.14;46.04;98930.66;1747292;82;21118;-79
2022/05/26 02:07:58;;;;;;;2.72;1.62;;;;;;;17.10;46.21;98935.34;1747790;81;21063;-78
2022/05/26 02:10:38;;;;;;;5.80;1.60;;;;;;;17.08;46.23;98927.97;1748022;82;21785;-81
2022/05/26 02:13:14;;;;;;;19.25;2.10;;;;;;;17.05;46.21;98927.69;1746922;82;21070;-79
2022/05/26 02:15:54;;;;;;;7.70;1.62;;;;;;;17.03;46.29;98924.30;1747517;82;20996;-79
2022/05/26 02:18:26;;;;;;;4.03;1.70;;;;;;;17.02;46.60;98922.58;1747928;82;21075;-81
2022/05/26 02:21:00;;;;;;;7.85;1.40;;;;;;;17.00;46.65;98925.84;1747818;82;20969;-81
2022/05/26 02:23:32;;;;;;;5.92;1.90;;;;;;;16.96;46.48;98921.67;1747048;82;21808;-79
2022/05/26 02:26:00;;;;;;;6.25;1.57;;;;;;;16.91;46.58;98917.17;1747940;82;20996;-81
2022/05/26 02:28:27;;;;;;;11.05;2.05;;;;;;;16.87;46.54;98919.19;1747790;82;21087;-81
2022/05/26 02:30:54;;;;;;;2.33;1.60;;;;;;;16.86;46.69;98925.48;1747749;82;21102;-79
2022/05/26 02:33:20;;;;;;;12.50;1.40;;;;;;;16.82;46.81;98917.80;1747916;82;21126;-79
2022/05/26 02:35:50;;;;;;;5.83;1.82;;;;;;;16.80;47.16;98914.41;1746512;82;21109;-79
2022/05/26 02:38:21;;;;;;;11.38;1.70;;;;;;;16.78;47.16;98918.95;1710212;82;21554;-80
2022/05/26 02:40:48;;;;;;;4.78;1.40;;;;;;;16.75;47.29;98921.84;1709459;83;21623;-80
2022/05/26 02:43:24;;;;;;;3.22;1.50;;;;;;;16.71;47.76;98922.05;1709847;83;21651;-81
2022/05/26 02:46:23;;;;;;;17.10;1.90;;;;;;;16.67;48.52;98930.34;1709924;83;21081;-79
2022/05/26 02:49:08;;;;;;;9.50;2.02;;;;;;;16.58;50.67;98937.14;1713997;83;21231;-80
2022/05/26 02:51:49;;;;;;;3.02;1.98;;;;;;;16.43;51.65;98939.03;1714299;83;21066;-79
2022/05/26 02:54:30;;;;;;;11.48;1.60;;;;;;;16.30;53.08;98952.76;1714550;83;21636;-81
2022/05/26 02:57:24;;;;;;;11.88;2.40;;;;;;;16.13;54.78;98945.93;1714144;83;21077;-82
2022/05/26 03:00:16;;;;;;;12.47;1.82;;;;;;;15.96;57.24;98941.26;1714443;83;21145;-83
2022/05/26 03:02:57;;;;;;;4.78;1.72;;;;;;;15.77;57.59;98933.67;1715327;82;21196;-83
2022/05/26 03:05:48;;;;;;;5.42;1.87;;;;;;;15.65;57.88;98930.92;1741026;82;21012;-81
2022/05/26 03:08:17;;;;;;;5.33;1.72;;;;;;;15.56;58.59;98930.56;1742023;82;20996;-81
2022/05/26 03:10:48;;;;;;;7.12;2.08;;;;;;;15.46;58.94;98921.50;1742128;82;21562;-81
2022/05/26 03:13:16;;;;;;;7.42;2.22;;;;;;;15.39;59.16;98918.39;1741879;82;21079;-81
2022/05/26 03:15:43;;;;;;;13.05;2.12;;;;;;;15.32;59.67;98916.25;1741759;82;21800;-81
2022/05/26 03:18:09;;;;;;;4.17;2.10;;;;;;;15.26;59.93;98908.68;1741934;82;21067;-84
2022/05/26 03:20:37;;;;;;;12.25;2.83;;;;;;;15.20;60.76;98910.77;1741986;82;21017;-85
2022/05/26 03:23:04;;;;;;;10.28;2.50;;;;;;;15.11;62.23;98908.69;1742014;82;20988;-84
2022/05/26 03:25:32;;;;;;;13.85;3.40;;;;;;;14.99;63.55;98920.06;1741892;82;21626;-85
2022/05/26 03:28:00;;;;;;;6.53;2.22;;;;;;;14.83;65.27;98919.70;1741749;82;21016;-85
2022/05/26 03:30:26;;;;;;;10.38;2.72;;;;;;;14.68;67.02;98915.34;1742020;82;21142;-84
2022/05/26 03:32:53;;;;;;;7.85;2.65;;;;;;;14.50;68.09;98915.95;1741658;82;21095;-83
2022/05/26 03:40:53;;;;;;;;;;;;;;;14.05;71.46;98918.58;1744435;82;21152;-85
2022/05/26 03:43:18;;;;;;;7.33;2.62;;;;;;;13.98;72.38;98919.89;1742151;81;20131;-84
2022/05/26 03:45:45;;;;;;;9.15;2.33;;;;;;;13.86;73.41;98914.84;1741776;82;21090;-83
2022/05/26 03:48:12;;;;;;;7.75;2.40;;;;;;;13.79;74.04;98928.52;1734330;82;21107;-84
2022/05/26 03:50:40;;;;;;;3.50;2.45;;;;;;;13.74;74.93;98916.41;1733915;82;20988;-84
2022/05/26 03:53:06;;;;;;;8.23;2.72;;;;;;;13.72;75.47;98905.55;1733894;82;21486;-86
2022/05/26 03:55:33;;;;;;;10.80;2.70;;;;;;;13.66;76.46;98925.23;1733801;82;20993;-84
2022/05/26 03:58:01;;;;;;;10.70;3.05;;;;;;;13.54;77.61;98923.30;1734069;82;21008;-85
2022/05/26 04:00:28;;;;;;;8.23;2.87;;;;;;;13.45;78.15;98913.23;1733539;82;21621;-85
2022/05/26 04:02:54;;;;;;;9.15;2.83;;;;;;;13.38;79.35;98922.84;1733825;82;21500;-85
2022/05/26 04:05:20;;;;;;;5.67;2.62;;;;;;;13.33;79.62;98923.56;1733595;82;21190;-86
2022/05/26 04:07:48;;;;;;;7.47;2.60;;;;;;;13.28;80.44;98922.94;1733490;82;21570;-85
2022/05/26 04:10:16;;;;;;;10.88;2.70;;;;;;;13.20;80.70;98918.55;1734154;82;20996;-87
2022/05/26 04:12:44;;;;;;;6.03;2.65;;;;;;;13.18;81.06;98924.38;1733468;82;21039;-86
2022/05/26 04:15:12;;;;;;;10.60;2.90;;;;;;;13.15;81.42;98932.47;1733913;82;21168;-85
2022/05/26 04:17:40;;;;;;;8.73;2.42;;;;;;;13.11;81.48;98936.20;1733656;82;21140;-86
2022/05/26 04:20:09;;;;;;;7.62;2.72;;;;;;;13.05;82.27;98933.91;1733627;82;21068;-84
2022/05/26 04:22:35;;;;;;;8.50;2.90;;;;;;;12.98;83.31;98931.59;1733974;82;21685;-86
2022/05/26 04:25:04;;;;;;;4.35;2.55;;;;;;;12.92;83.36;98937.19;1733555;82;21072;-86
2022/05/26 04:27:32;;;;;;;11.63;3.15;;;;;;;12.90;83.88;98935.11;1733648;82;21087;-85
2022/05/26 04:30:01;;;;;;;6.80;3.00;;;;;;;12.84;84.28;98935.42;1733755;82;21554;-86
2022/05/26 04:32:27;;;;;;;9.98;2.87;;;;;;;12.81;84.44;98932.97;1733503;82;21036;-86
2022/05/26 04:34:54;;;;;;;5.03;2.65;;;;;;;12.81;84.49;98942.21;1733859;82;21036;-86
2022/05/26 04:37:23;;;;;;;5.08;3.10;;;;;;;12.81;84.75;98932.97;1740971;82;21043;-86
2022/05/26 04:39:55;;;;;;;3.85;2.83;;;;;;;12.77;85.21;98935.38;1747550;82;21132;-86
2022/05/26 04:42:22;;;;;;;3.98;2.72;;;;;;;12.71;85.46;98934.36;1747251;82;21103;-86
2022/05/26 04:44:49;;;;;;;8.85;2.83;;;;;;;12.67;85.59;98932.36;1747537;82;21038;-86
2022/05/26 04:47:17;;;;;;;8.53;3.05;;;;;;;12.66;85.81;98929.80;1749476;81;20975;-86
2022/05/26 04:49:44;;;;;;;5.10;2.72;;;;;;;12.63;85.73;98926.39;1753005;81;21117;-85
2022/05/26 04:52:14;;;;;;;6.37;2.85;;;;;;;12.63;85.74;98922.44;1725673;81;21110;-85
2022/05/26 04:54:42;;;;;;;4.53;2.40;;;;;;;12.63;86.00;98921.11;1753064;81;21902;-86
2022/05/26 04:57:09;;;;;;;8.28;3.00;;;;;;;12.63;86.19;98917.16;1751659;81;21004;-87
2022/05/26 04:59:35;;;;;;;5.58;2.80;;;;;;;12.64;86.31;98924.59;1742111;82;21012;-85
2022/05/26 05:02:02;;;;;;;7.28;2.83;;;;;;;12.66;86.41;98921.88;1742230;82;21063;-85
2022/05/26 05:04:29;;;;;;;7.47;3.40;;;;;;;12.67;86.48;98925.76;1742078;82;21146;-85
2022/05/26 05:06:55;;;;;;;5.37;2.77;;;;;;;12.69;86.63;98925.69;1742372;82;21837;-85
2022/05/26 05:09:22;;;;;;;4.12;3.10;;;;;;;12.70;86.81;98922.97;1741845;82;21000;-85
2022/05/26 05:11:49;;;;;;;4.95;3.05;;;;;;;12.70;86.90;98929.56;1741974;82;21062;-85
2022/05/26 05:14:17;;;;;;;9.85;3.17;;;;;;;12.67;87.07;98919.16;1741906;82;21047;-85
2022/05/26 05:16:45;;;;;;;4.65;2.87;;;;;;;12.66;87.26;98923.20;1742128;82;21213;-86
2022/05/26 05:19:16;;;;;;;5.78;2.80;;;;;;;12.61;87.64;98929.59;1742207;82;21078;-86
2022/05/26 05:22:03;;;;;;;6.22;3.15;;;;;;;12.59;87.93;98935.42;1741748;82;21485;-84
2022/05/26 05:24:35;;;;;;;3.40;3.10;;;;;;;12.58;88.41;98936.34;1733685;82;21567;-86
2022/05/26 05:27:22;;;;;;;4.20;2.83;;;;;;;12.57;88.67;98934.63;1741850;81;21055;-85
2022/05/26 05:29:48;;;;;;;13.93;3.22;;;;;;;12.58;88.93;98933.70;1741585;82;21043;-86
2022/05/26 05:32:26;;;;;;;10.65;2.83;;;;;;;12.59;89.28;98938.05;1741698;82;21132;-85
2022/05/26 05:34:59;;;;;;;6.45;2.45;;;;;;;12.60;89.46;98939.74;1742077;82;21059;-85
2022/05/26 05:37:26;;;;;;;6.95;3.10;;;;;;;12.63;89.78;98940.91;1741726;82;21061;-84
2022/05/26 05:39:53;;;;;;;6.22;2.95;;;;;;;12.65;89.96;98944.79;1742298;82;21130;-84
2022/05/26 05:42:21;;;;;;;6.35;2.77;;;;;;;12.68;90.50;98955.67;1713121;82;21142;-86
2022/05/26 05:44:47;;;;;;;9.48;3.05;;;;;;;12.70;90.50;98959.07;1741734;82;21591;-85
2022/05/26 05:47:14;;;;;;;13.45;3.37;;;;;;;12.71;90.68;98951.52;1739956;81;20988;-86
2022/05/26 05:49:40;;;;;;;7.33;3.35;;;;;;;12.73;90.95;98949.68;1733786;82;21012;-85
2022/05/26 05:52:10;;;;;;;5.05;3.22;;;;;;;12.77;91.18;98948.57;1733643;82;21056;-85
2022/05/26 05:54:37;;;;;;;6.97;2.90;;;;;;;12.81;91.46;98944.85;1733894;82;21697;-85
2022/05/26 05:57:05;;;;;;;4.83;2.72;;;;;;;12.87;91.46;98947.63;1733626;82;21120;-85
2022/05/26 05:59:32;;;;;;;9.80;3.10;;;;;;;12.92;91.70;98950.39;1734192;82;21047;-85
2022/05/26 06:01:59;;;;;;;4.10;3.00;;;;;;;12.95;91.86;98951.55;1733688;82;21452;-86
2022/05/26 06:04:25;;;;;;;5.37;3.00;;;;;;;12.99;92.20;98960.16;1733731;82;21033;-84
2022/05/26 06:06:52;;;;;;;6.55;3.12;;;;;;;13.01;92.36;98960.48;1733614;82;21005;-85
2022/05/26 06:09:20;;;;;;;5.05;3.77;;;;;;;13.04;93.18;98966.52;1734004;82;21032;-85
2022/05/26 06:11:48;;;;;;;4.92;3.12;;;;;;;13.07;93.79;98979.57;1733699;82;21630;-86
2022/05/26 06:14:14;;;;;;;3.30;2.98;;;;;;;13.08;94.45;98986.54;1733793;82;21016;-85
2022/05/26 06:16:41;;;;;;;6.55;2.75;;;;;;;13.10;94.92;98984.69;1734043;82;21080;-85
2022/05/26 06:19:08;;;;;;;6.67;2.50;;;;;;;13.10;95.31;98980.73;1733585;82;21068;-84
2022/05/26 06:21:36;;;;;;;3.47;2.20;;;;;;;13.10;95.45;98985.54;1733725;82;21259;-85
2022/05/26 06:24:04;;;;;;;1.60;1.50;;;;;;;13.13;95.22;98981.86;1733867;82;21107;-85
2022/05/26 06:26:31;;;;;;;1.70;1.60;;;;;;;13.14;94.59;98991.50;1733904;82;21048;-83
2022/05/26 06:37:13;;;;;;;1.67;1.20;;;;;;;13.25;92.61;98977.26;1733854;82;21063;-86
2022/05/26 06:39:39;;;;;;;1.40;1.30;;;;;;;13.24;93.11;98963.66;1734118;82;21161;-87
2022/05/26 06:42:09;;;;;;;2.50;1.10;;;;;;;13.23;92.21;98983.10;1733075;82;21499;-88
2022/05/26 06:44:40;;;;;;;2.42;1.22;;;;;;;13.24;91.58;98984.78;1734633;82;21033;-86
2022/05/26 06:47:14;;;;;;;1.20;1.10;;;;;;;13.23;91.16;98987.06;1740294;82;21327;-86
2022/05/26 06:49:41;;;;;;;1.75;1.40;;;;;;;13.27;91.16;98995.20;1737549;82;21083;-85
2022/05/26 06:52:09;;;;;;;0.98;0.98;;;;;;;13.28;90.92;98990.75;1734007;82;21048;-85
2022/05/26 06:54:38;;;;;;;2.25;1.55;;;;;;;13.28;90.53;99011.44;1733905;82;20993;-87
2022/05/26 06:57:05;;;;;;;1.10;1.10;;;;;;;13.23;89.15;99016.13;1733802;82;21111;-86
2022/05/26 06:59:33;;;;;;;4.42;0.90;;;;;;;13.16;89.14;99023.52;1733970;82;21601;-84
2022/05/26 07:01:59;;;;;;;1.45;1.17;;;;;;;13.11;88.97;99023.36;1734022;82;21084;-85
2022/05/26 07:04:27;;;;;;;1.07;1.07;;;;;;;13.05;88.85;99027.19;1733860;82;21079;-83
2022/05/26 07:06:54;;;;;;;1.10;1.10;;;;;;;13.04;89.02;99025.47;1733956;82;21039;-84
2022/05/26 07:09:22;;;;;;;1.57;1.42;;;;;;;13.03;88.55;99029.51;1734064;82;20989;-85
2022/05/26 07:11:49;;;;;;;1.10;1.10;;;;;;;13.00;88.50;99022.14;1734191;82;21836;-84
2022/05/26 07:14:16;;;;;;;1.60;1.50;;;;;;;13.05;88.49;99022.38;1733691;82;21067;-84
2022/05/26 07:16:45;;;;;;;3.90;1.37;;;;;;;13.12;88.26;99033.00;1733611;82;21059;-83
2022/05/26 07:19:15;;;;;;;4.15;1.60;;;;;;;13.14;88.18;99024.05;1733563;82;21067;-84
2022/05/26 07:21:51;;;;;;;2.35;1.70;;;;;;;13.15;88.06;99028.41;1733710;82;21060;-84
2022/05/26 07:24:20;;;;;;;1.77;1.60;;;;;;;13.16;88.25;99034.53;1733743;82;21163;-88
2022/05/26 07:26:47;;;;;;;2.10;2.00;;;;;;;13.15;88.34;99035.48;1733745;82;21008;-90
2022/05/26 07:29:15;;;;;;;2.12;1.92;;;;;;;13.18;88.47;99037.97;1734050;82;21079;-89
2022/05/26 07:31:42;;;;;;;1.95;1.85;;;;;;;13.16;88.00;99030.56;1733850;82;21111;-89
2022/05/26 07:34:08;;;;;;;3.08;1.90;;;;;;;13.14;87.93;99023.20;1733852;82;21139;-86
2022/05/26 07:42:10;;;;;;;1.65;1.55;;;;;;;13.14;87.55;99037.73;1733979;82;21119;-85
2022/05/26 07:44:38;;;;;;;1.80;1.50;;;;;;;13.12;87.44;99033.00;1733769;82;21644;-85
2022/05/26 07:47:07;;;;;;;1.47;1.37;;;;;;;13.13;87.08;99032.05;1733718;82;21103;-85
2022/05/26 07:49:41;;;;;;;4.92;1.50;;;;;;;13.13;87.05;99037.33;1746756;82;21526;-85
2022/05/26 07:52:10;;;;;;;3.50;1.95;;;;;;;13.14;87.03;99041.69;1746918;82;21086;-85
2022/05/26 07:54:38;;;;;;;1.77;1.65;;;;;;;13.15;87.13;99040.77;1747510;82;21055;-84
2022/05/26 07:57:05;;;;;;;6.03;1.85;;;;;;;13.15;87.19;99038.13;1747638;82;21141;-85
2022/05/26 07:59:32;;;;;;;2.17;1.77;;;;;;;13.14;86.90;99045.66;1748006;82;21012;-86
2022/05/26 08:01:58;;;;;;;3.47;1.90;;;;;;;13.14;86.94;99046.97;1747721;82;21098;-85
2022/05/26 08:04:25;;;;;;;1.87;1.65;;;;;;;13.14;86.78;99056.22;1747721;82;21138;-85
2022/05/26 08:06:51;;;;;;;2.20;2.00;;;;;;;13.14;86.80;99050.94;1747874;82;21063;-86
2022/05/26 08:09:20;;;;;;;2.47;1.95;;;;;;;13.16;86.48;99070.19;1747483;82;21110;-85
2022/05/26 08:11:48;;;;;;;1.87;1.70;;;;;;;13.20;86.25;99061.19;1748093;82;21660;-86
2022/05/26 08:14:14;;;;;;;2.00;1.90;;;;;;;13.24;85.85;99078.57;1747602;82;21550;-85
2022/05/26 08:16:41;;;;;;;8.10;2.20;;;;;;;13.31;85.54;99065.89;1747589;82;21027;-86
2022/05/26 08:19:08;;;;;;;2.10;1.90;;;;;;;13.44;85.20;99071.42;1747978;82;21657;-86
2022/05/26 08:21:35;;;;;;;3.12;1.72;;;;;;;13.60;84.68;99070.98;1747844;82;21043;-87
2022/05/26 08:24:03;;;;;;;3.50;1.70;;;;;;;13.79;83.67;99072.63;1747644;82;21394;-86
2022/05/26 08:26:30;;;;;;;2.58;1.60;;;;;;;13.94;82.98;99071.77;1747732;82;21111;-86
2022/05/26 08:28:57;;;;;;;1.87;1.40;;;;;;;14.08;82.57;99081.10;1748045;82;21561;-86
2022/05/26 08:31:24;;;;;;;5.17;1.10;;;;;;;14.24;82.52;99065.67;1747774;82;21542;-86
2022/05/26 08:33:51;;;;;;;3.42;1.12;;;;;;;14.42;79.09;99080.98;1748093;82;21585;-86
2022/05/26 08:36:20;;;;;;;2.37;1.45;;;;;;;14.56;76.79;99082.38;1747783;82;21526;-82
2022/05/26 08:38:47;;;;;;;1.57;1.10;;;;;;;14.74;76.48;99071.67;1747836;82;21238;-84
2022/05/26 08:41:19;;;;;;;1.92;1.22;;;;;;;14.99;74.39;99069.74;1747657;82;21009;-84
2022/05/26 08:43:55;;;;;;;1.22;1.05;;;;;;;15.24;74.18;99069.95;1725574;82;32654;-84
2022/05/26 08:46:21;;;;;;;1.15;1.10;;;;;;;15.53;73.06;99075.29;1747801;82;21493;-86
2022/05/26 08:49:10;;;;;;;6.08;1.22;;;;;;;15.71;70.76;99073.75;1750339;81;21062;-87
2022/05/26 08:51:50;;;;;;;3.15;1.02;;;;;;;15.80;71.34;99070.53;1753229;81;22930;-86
2022/05/26 08:54:26;;;;;;;2.77;1.17;;;;;;;15.90;68.54;99081.42;1753111;81;20996;-85
2022/05/26 08:56:56;;;;;;;2.20;1.00;;;;;;;15.87;69.10;99083.81;1753224;81;20991;-86
2022/05/26 08:59:26;;;;;;;2.27;1.00;;;;;;;15.85;67.50;99078.21;1752814;81;21125;-86
2022/05/26 09:01:52;;;;;;;3.60;1.40;;;;;;;15.78;68.11;99085.25;1753109;81;21057;-84
2022/05/26 09:04:18;;;;;;;2.75;1.12;;;;;;;15.77;67.99;99088.00;1752835;81;21136;-85
2022/05/26 09:15:06;;;;;;;4.75;1.17;;;;;;;16.10;64.28;99081.48;1753654;81;21062;-85
2022/05/26 09:17:33;;;;;;;2.60;1.12;;;;;;;16.29;64.03;99067.40;1753027;81;21121;-85
2022/05/26 09:20:04;;;;;;;0.55;0.55;;;;;;;16.49;62.16;99097.08;1753066;81;21581;-85
2022/05/26 09:22:45;;;;;;;2.37;0.95;;;;;;;16.62;61.20;99074.56;1753076;81;21078;-82
2022/05/26 09:25:35;;;;;;;1.20;0.90;;;;;;;16.66;61.57;99077.37;1753392;81;21048;-85
2022/05/26 09:28:02;;;;;;;1.95;1.17;;;;;;;16.80;61.47;99079.13;1745098;81;21035;-83
2022/05/26 09:30:32;;;;;;;3.85;0.85;;;;;;;17.00;61.45;99083.96;1753079;81;21478;-84
2022/05/26 09:32:59;;;;;;;9.93;2.15;;;;;;;17.20;61.09;99079.10;1752887;81;21109;-84
2022/05/26 09:35:29;;;;;;;4.42;0.70;;;;;;;17.41;60.93;99074.92;1753112;81;21093;-84
2022/05/26 09:37:58;;;;;;;1.12;0.80;;;;;;;17.61;57.86;99077.52;1753212;81;21015;-83
2022/05/26 09:40:31;;;;;;;2.15;0.90;;;;;;;17.67;58.00;99081.56;1753330;81;20975;-83
2022/05/26 09:43:08;;;;;;;0.80;0.80;;;;;;;17.69;56.37;99086.30;1752964;81;21847;-83
2022/05/26 09:45:51;;;;;;;3.20;1.12;;;;;;;17.61;56.16;99088.64;1753544;81;20991;-84
2022/05/26 09:48:31;;;;;;;2.05;0.80;;;;;;;17.51;55.74;99087.59;1726231;81;21073;-82
2022/05/26 09:51:30;;;;;;;2.58;0.70;;;;;;;17.49;56.20;99088.19;1753082;81;21173;-84
2022/05/26 09:53:56;;;;;;;1.55;0.65;;;;;;;17.57;56.70;99079.19;1751069;81;21066;-82
2022/05/26 09:56:40;;;;;;;1.95;0.93;;;;;;;17.71;54.14;99083.04;1753072;81;21243;-82
2022/05/26 09:59:32;;;;;;;4.80;1.15;;;;;;;17.76;55.93;99074.25;1753300;81;22150;-82
2022/05/26 10:02:08;;;;;;;0.70;0.70;;;;;;;17.86;52.69;99101.05;1753144;81;21105;-83
2022/05/26 10:05:03;;;;;;;5.47;1.07;;;;;;;17.90;53.47;99085.75;1752949;81;21042;-81
2022/05/26 10:08:13;;;;;;;7.12;1.42;;;;;;;17.99;52.12;99094.42;1753362;81;21098;-83
2022/05/26 10:10:45;;;;;;;5.67;1.05;;;;;;;18.06;53.11;99075.70;1753028;81;21085;-84
2022/05/26 10:13:53;;;;;;;0.50;0.50;;;;;;;18.24;50.67;99080.63;1753079;81;21109;-82
2022/05/26 10:17:04;;;;;;;3.72;0.70;;;;;;;18.30;49.79;99094.84;1736907;82;21651;-83
2022/05/26 10:20:11;;;;;;;2.85;0.70;;;;;;;18.24;52.31;99074.84;1753147;81;21054;-81
2022/05/26 10:22:42;;;;;;;;;;;;;;;18.36;49.71;99101.05;1755818;81;22197;-80
2022/05/26 10:25:29;;;;;;;2.52;0.80;;;;;;;18.40;49.34;99094.52;1753410;81;22046;-81
2022/05/26 10:28:16;;;;;;;2.30;0.60;;;;;;;18.47;49.62;99118.41;1753212;81;21119;-83
2022/05/26 10:31:00;;;;;;;1.35;0.70;;;;;;;18.65;48.72;99088.72;1755193;81;21046;-80
2022/05/26 10:34:04;;;;;;;2.92;0.80;;;;;;;18.73;47.22;99098.33;1752912;81;20960;-79
2022/05/26 10:37:07;;;;;;;1.40;0.90;;;;;;;18.67;47.88;99104.10;1753155;81;21042;-80
2022/05/26 10:40:07;;;;;;;0.65;0.60;;;;;;;18.65;47.89;99096.71;1753107;81;21895;-79
2022/05/26 10:42:38;;;;;;;4.53;1.05;;;;;;;18.68;49.47;99103.98;1752880;81;21018;-81
2022/05/26 10:45:27;;;;;;;1.40;0.93;;;;;;;18.77;48.31;99095.78;1747301;82;21115;-79
2022/05/26 10:48:07;;;;;;;12.35;0.88;;;;;;;18.83;48.84;99102.02;1679935;83;21043;-80
2022/05/26 10:51:02;;;;;;;5.37;0.70;;;;;;;18.98;45.26;99113.80;1744244;82;20998;-80
2022/05/26 10:53:49;;;;;;;3.85;1.00;;;;;;;19.02;47.72;99095.30;1743910;82;21147;-79
2022/05/26 10:56:29;;;;;;;1.05;0.72;;;;;;;19.23;46.45;99106.11;1748606;82;21031;-81
2022/05/26 10:59:10;;;;;;;9.75;1.00;;;;;;;19.30;46.40;99098.87;1748852;82;22194;-80
2022/05/26 11:01:45;;;;;;;7.62;1.12;;;;;;;19.37;45.15;99115.73;1747839;81;21572;-79
2022/05/26 11:04:21;;;;;;;;;;;;;;;19.36;45.67;99111.36;1751442;82;21068;-80
2022/05/26 11:06:48;;;;;;;4.28;0.65;;;;;;;19.41;44.76;99113.19;1748570;82;21142;-80
2022/05/26 11:09:34;;;;;;;6.40;0.70;;;;;;;19.40;44.38;99099.47;1748480;82;21009;-81
2022/05/26 11:12:11;;;;;;;3.95;0.75;;;;;;;19.37;44.25;99093.91;1703945;82;21092;-82
2022/05/26 11:17:47;;;;;;;5.53;1.20;;;;;;;19.47;44.24;99103.38;1748692;82;21002;-80
2022/05/26 11:20:20;;;;;;;2.00;1.35;;;;;;;19.46;43.28;99113.18;1748639;82;22118;-81
2022/05/26 11:22:49;;;;;;;3.37;1.42;;;;;;;19.36;43.73;99112.70;1748587;82;21544;-80
2022/05/26 11:25:25;;;;;;;4.42;0.90;;;;;;;19.31;44.54;99101.87;1748645;82;21080;-80
2022/05/26 11:27:58;;;;;;;6.92;1.57;;;;;;;19.35;44.65;99098.98;1748081;82;21691;-80
2022/05/26 11:36:50;;;;;;;2.10;0.60;;;;;;;19.40;44.09;99106.14;1748555;82;21669;-81
2022/05/26 11:39:28;;;;;;;4.42;0.70;;;;;;;19.49;43.54;99102.77;1748434;82;21045;-82
2022/05/26 11:42:04;;;;;;;6.47;0.60;;;;;;;19.63;43.68;99107.86;1748613;82;22074;-82
2022/05/26 11:44:45;;;;;;;2.15;0.80;;;;;;;19.84;42.34;99108.52;1748939;82;21033;-80
2022/05/26 11:47:23;;;;;;;10.45;1.67;;;;;;;19.88;41.01;99119.80;1745894;82;21883;-80
2022/05/26 11:49:58;;;;;;;4.90;0.85;;;;;;;19.76;42.04;99098.92;1744085;82;21029;-81
2022/05/26 11:52:41;;;;;;;3.98;0.60;;;;;;;19.81;42.81;99095.41;1740543;82;21034;-79
2022/05/26 11:55:10;;;;;;;5.67;0.68;;;;;;;20.05;43.45;99092.58;1737511;82;21204;-81
2022/05/26 11:57:44;;;;;;;3.72;0.47;;;;;;;20.20;40.87;99098.00;1740648;82;21069;-79
2022/05/26 12:00:38;;;;;;;4.37;0.82;;;;;;;20.20;39.80;99103.34;1740961;82;21107;-81
2022/05/26 12:03:26;;;;;;;2.90;0.90;;;;;;;20.26;39.75;99106.49;1740697;82;21052;-79
2022/05/26 12:06:13;;;;;;;4.58;0.80;;;;;;;20.33;39.90;99093.86;1740456;82;21006;-79
2022/05/26 12:09:12;;;;;;;2.35;0.82;;;;;;;20.28;39.50;99101.90;1739275;82;21529;-80
2022/05/26 12:12:18;;;;;;;5.62;1.20;;;;;;;20.07;40.51;99107.98;1740325;82;21816;-80
2022/05/26 12:14:53;;;;;;;2.10;1.02;;;;;;;19.94;41.18;99125.96;1740973;82;21195;-81
2022/05/26 12:17:34;;;;;;;;;;;;;;;19.92;39.99;99119.44;1743052;82;21557;-80
2022/05/26 12:20:16;;;;;;;2.52;0.70;;;;;;;19.90;40.53;99110.67;1740657;82;20449;-80
2022/05/26 12:22:57;;;;;;;3.22;0.80;;;;;;;20.00;39.87;99123.65;1740722;82;21574;-80
2022/05/26 12:25:37;;;;;;;3.15;0.60;;;;;;;20.12;41.48;99112.96;1740312;82;21196;-81
2022/05/26 12:28:27;;;;;;;2.08;0.70;;;;;;;20.28;40.43;99112.58;1740501;82;21126;-80
2022/05/26 12:31:00;;;;;;;3.47;0.85;;;;;;;20.48;40.35;99102.94;1740581;82;21010;-80
2022/05/26 12:34:02;;;;;;;2.40;0.70;;;;;;;20.66;39.62;99112.61;1740582;82;21144;-79
2022/05/26 12:36:48;;;;;;;2.77;0.60;;;;;;;20.69;39.56;99115.87;1735109;82;21041;-79
2022/05/26 12:39:45;;;;;;;3.60;0.90;;;;;;;20.69;39.14;99127.90;1742190;81;21645;-81
2022/05/26 12:42:29;;;;;;;2.62;0.80;;;;;;;20.63;38.36;99122.21;1742081;81;23434;-80